Time;durP1;ratioP1;P1;durP2;ratioP2;P2;SDS_P1;SDS_P2;PMS_P1;PMS_P2;Temp;Humidity;BMP_temperature;BMP_pressure;BME280_temperature;BME280_humidity;BME280_pressure;Samples;Min_cycle;Max_cycle;Signal;HPM_P1;HPM_P2
2022/09/23 00:00:41;;;;;;;13.93;9.95;;;15.70;99.90;;;;;;5070792;28;20665;-55
2022/09/23 00:03:07;;;;;;;14.25;9.27;;;15.40;99.90;;;;;;5071109;28;20299;-55
2022/09/23 00:05:33;;;;;;;13.00;9.85;;;15.70;99.90;;;;;;5070169;28;20662;-55
2022/09/23 00:07:59;;;;;;;19.65;10.55;;;15.70;99.90;;;;;;5070797;28;20191;-55
2022/09/23 00:10:27;;;;;;;15.52;9.95;;;15.70;99.90;;;;;;5070893;28;20307;-56
2022/09/23 00:12:53;;;;;;;15.07;9.80;;;15.80;99.90;;;;;;5070665;28;20172;-56
2022/09/23 00:15:20;;;;;;;15.93;8.63;;;15.70;99.90;;;;;;5054740;28;20274;-57
2022/09/23 00:17:46;;;;;;;12.48;9.43;;;15.70;99.90;;;;;;5070704;28;20176;-58
2022/09/23 00:20:12;;;;;;;10.95;8.45;;;15.80;99.90;;;;;;5070156;28;20195;-55
2022/09/23 00:22:38;;;;;;;13.32;9.00;;;15.80;99.90;;;;;;5070644;28;20187;-56
2022/09/23 00:25:08;;;;;;;15.45;8.15;;;15.80;99.90;;;;;;5070967;28;20168;-55
2022/09/23 00:27:35;;;;;;;9.35;6.32;;;15.70;99.90;;;;;;5069837;28;20592;-55
2022/09/23 00:30:01;;;;;;;16.00;7.78;;;15.70;99.90;;;;;;5069903;28;20662;-55
2022/09/23 00:32:26;;;;;;;11.55;7.13;;;15.70;99.90;;;;;;5069673;28;20216;-55
2022/09/23 00:34:52;;;;;;;8.18;7.10;;;15.70;99.90;;;;;;5070528;28;20177;-55
2022/09/23 00:37:19;;;;;;;9.73;6.70;;;15.70;99.90;;;;;;5070277;28;20180;-55
2022/09/23 00:39:45;;;;;;;7.25;5.68;;;15.60;99.90;;;;;;5070512;28;20172;-55
2022/09/23 00:42:21;;;;;;;8.43;6.07;;;15.60;99.90;;;;;;5070238;28;20291;-55
2022/09/23 00:44:48;;;;;;;8.77;5.65;;;15.50;99.90;;;;;;5070537;28;20180;-56
2022/09/23 00:47:20;;;;;;;7.50;5.97;;;15.60;99.90;;;;;;5069259;28;20173;-58
2022/09/23 00:49:49;;;;;;;8.93;5.70;;;15.50;99.90;;;;;;5052038;28;20204;-55
2022/09/23 00:52:19;;;;;;;6.18;4.88;;;15.50;99.90;;;;;;5069922;28;20238;-56
2022/09/23 00:54:46;;;;;;;7.90;5.43;;;15.50;99.90;;;;;;5070497;28;20168;-56
2022/09/23 00:57:15;;;;;;;7.65;5.45;;;15.50;99.90;;;;;;5070195;28;20184;-56
2022/09/23 00:59:42;;;;;;;9.55;5.80;;;15.50;99.90;;;;;;5069945;28;20536;-56
2022/09/23 01:02:10;;;;;;;6.40;5.40;;;15.50;99.90;;;;;;5069966;28;20187;-55
2022/09/23 01:04:36;;;;;;;7.40;5.38;;;15.40;99.90;;;;;;5069733;28;20191;-56
2022/09/23 01:07:01;;;;;;;7.75;6.20;;;15.40;99.90;;;;;;5069845;28;20224;-56
2022/09/23 01:09:27;;;;;;;7.22;5.97;;;15.40;99.90;;;;;;5069869;28;20188;-55
2022/09/23 01:12:11;;;;;;;8.02;5.82;;;15.40;99.90;;;;;;5069333;28;20210;-56
2022/09/23 01:14:51;;;;;;;8.27;6.25;;;15.30;99.90;;;;;;5050199;28;20609;-56
2022/09/23 01:17:47;;;;;;;8.23;6.07;;;15.40;99.90;;;;;;5069549;28;20172;-56
2022/09/23 01:20:43;;;;;;;8.23;6.25;;;15.40;99.90;;;;;;5069503;28;20309;-56
2022/09/23 01:23:21;;;;;;;6.70;5.43;;;15.50;99.90;;;;;;5069842;28;20183;-56
2022/09/23 01:26:05;;;;;;;7.57;5.80;;;15.50;99.90;;;;;;5069582;28;20168;-56
2022/09/23 01:29:05;;;;;;;9.63;5.90;;;15.50;99.90;;;;;;5069940;28;20200;-56
2022/09/23 01:31:48;;;;;;;8.10;5.57;;;15.60;99.90;;;;;;5069744;28;20210;-56
2022/09/23 01:34:23;;;;;;;11.32;6.40;;;15.60;99.90;;;;;;5069844;28;20203;-56
2022/09/23 01:37:14;;;;;;;7.22;5.70;;;15.50;99.90;;;;;;5053983;28;20183;-56
2022/09/23 01:39:50;;;;;;;8.68;5.00;;;15.50;99.90;;;;;;5070056;28;20742;-56
2022/09/23 01:42:32;;;;;;;5.55;4.10;;;15.50;99.90;;;;;;5069446;28;20191;-56
2022/09/23 01:45:16;;;;;;;5.70;4.30;;;15.60;99.90;;;;;;5070073;28;20230;-56
2022/09/23 01:47:50;;;;;;;6.75;3.95;;;15.60;99.90;;;;;;5069005;28;20168;-56
2022/09/23 01:53:13;;;;;;;4.75;3.58;;;15.80;99.90;;;;;;5068477;28;20223;-56
2022/09/23 01:55:46;;;;;;;6.50;3.80;;;15.80;99.90;;;;;;5058570;28;20171;-56
2022/09/23 01:58:23;;;;;;;4.88;3.30;;;15.90;99.90;;;;;;5067774;28;20223;-56
2022/09/23 02:00:55;;;;;;;7.50;2.80;;;16.00;99.90;;;;;;5066299;28;20196;-57
2022/09/23 02:03:27;;;;;;;4.28;2.97;;;15.90;99.90;;;;;;5065606;28;20239;-55
2022/09/23 02:06:01;;;;;;;4.32;2.55;;;16.00;99.90;;;;;;5060350;28;20230;-56
2022/09/23 02:08:35;;;;;;;5.00;2.83;;;16.00;99.90;;;;;;5069430;28;20172;-56
2022/09/23 02:11:07;;;;;;;4.03;2.60;;;16.00;99.90;;;;;;5069185;28;20284;-56
2022/09/23 02:13:53;;;;;;;4.38;2.67;;;16.00;99.90;;;;;;5069008;28;20259;-56
2022/09/23 02:16:23;;;;;;;6.88;2.70;;;16.10;99.90;;;;;;5069552;28;20200;-56
2022/09/23 02:18:57;;;;;;;6.10;3.35;;;16.10;99.90;;;;;;5069104;28;20631;-56
2022/09/23 02:21:28;;;;;;;8.15;3.40;;;16.20;99.90;;;;;;5068844;28;20196;-56
2022/09/23 02:24:03;;;;;;;5.50;3.22;;;16.10;99.90;;;;;;5069411;28;20169;-56
2022/09/23 02:26:51;;;;;;;4.82;2.83;;;16.10;99.90;;;;;;5069336;28;20181;-57
2022/09/23 02:29:27;;;;;;;5.05;2.78;;;16.20;99.90;;;;;;5058989;28;20204;-58
2022/09/23 02:32:03;;;;;;;4.80;2.90;;;16.20;99.90;;;;;;5064320;28;20216;-58
2022/09/23 02:34:39;;;;;;;7.50;3.60;;;16.10;99.90;;;;;;5072674;28;20225;-58
2022/09/23 02:37:46;;;;;;;5.22;3.00;;;16.10;99.90;;;;;;5057036;28;20255;-58
2022/09/23 02:40:16;;;;;;;6.63;3.47;;;16.10;99.90;;;;;;5072724;28;20218;-58
2022/09/23 02:42:45;;;;;;;6.43;3.92;;;16.00;99.90;;;;;;5054708;28;20183;-58
2022/09/23 02:45:10;;;;;;;8.18;4.50;;;16.00;99.90;;;;;;5072441;28;20307;-58
2022/09/23 02:47:40;;;;;;;7.80;4.63;;;16.00;99.90;;;;;;5072347;28;20263;-58
2022/09/23 02:50:08;;;;;;;5.50;4.78;;;16.00;99.90;;;;;;5072561;28;20165;-59
2022/09/23 02:52:36;;;;;;;7.40;4.88;;;16.10;99.90;;;;;;5072361;28;20181;-58
2022/09/23 02:55:03;;;;;;;12.82;6.10;;;16.10;99.90;;;;;;5072744;28;20164;-59
2022/09/23 02:57:29;;;;;;;7.97;4.78;;;16.10;99.90;;;;;;5072308;28;20176;-58
2022/09/23 02:59:54;;;;;;;5.75;3.92;;;16.10;99.90;;;;;;5052688;28;20674;-58
2022/09/23 03:02:43;;;;;;;7.45;3.58;;;16.00;99.90;;;;;;5043308;28;20183;-59
2022/09/23 03:05:23;;;;;;;4.35;3.17;;;16.00;99.90;;;;;;5063569;28;20181;-58
2022/09/23 03:08:01;;;;;;;3.25;2.67;;;15.90;99.90;;;;;;5064629;28;20204;-58
2022/09/23 03:11:03;;;;;;;2.85;2.20;;;15.90;99.90;;;;;;5072472;28;20195;-58
2022/09/23 03:13:53;;;;;;;3.53;2.20;;;15.90;99.90;;;;;;5053865;28;20188;-58
2022/09/23 03:16:35;;;;;;;2.72;2.20;;;15.90;99.90;;;;;;5071936;28;20671;-59
2022/09/23 03:19:16;;;;;;;4.13;2.00;;;15.90;99.90;;;;;;5071386;28;20183;-58
2022/09/23 03:21:50;;;;;;;4.80;1.83;;;15.10;99.90;;;;;;5071415;28;20180;-58
2022/09/23 03:24:19;;;;;;;3.85;1.95;;;15.80;99.90;;;;;;5071088;28;20200;-58
2022/09/23 03:26:46;;;;;;;4.35;1.77;;;15.80;99.90;;;;;;5071039;28;20212;-57
2022/09/23 03:29:14;;;;;;;2.47;1.80;;;15.80;99.90;;;;;;5053592;28;20640;-57
2022/09/23 03:31:41;;;;;;;3.25;2.00;;;15.80;99.90;;;;;;5071111;28;20654;-57
2022/09/23 03:34:19;;;;;;;3.67;1.70;;;15.80;99.90;;;;;;5071020;28;20203;-57
2022/09/23 03:37:00;;;;;;;3.00;1.75;;;15.80;99.90;;;;;;5071150;28;20225;-57
2022/09/23 03:39:40;;;;;;;3.42;1.60;;;15.80;99.90;;;;;;5065059;28;20546;-57
2022/09/23 03:42:20;;;;;;;2.35;1.67;;;15.50;99.90;;;;;;5070984;28;20176;-57
2022/09/23 03:44:47;;;;;;;5.38;1.77;;;15.80;99.90;;;;;;5070770;28;20342;-57
2022/09/23 03:47:15;;;;;;;3.45;1.63;;;15.60;99.90;;;;;;5071045;28;20176;-57
2022/09/23 03:49:49;;;;;;;4.82;1.95;;;15.70;99.90;;;;;;5071221;28;20177;-57
2022/09/23 03:52:16;;;;;;;5.15;1.80;;;15.70;99.90;;;;;;5069489;28;20215;-56
2022/09/23 03:54:42;;;;;;;4.63;1.52;;;15.80;99.90;;;;;;5071070;28;20500;-56
2022/09/23 03:57:10;;;;;;;4.28;2.08;;;15.70;99.90;;;;;;5070969;28;20194;-57
2022/09/23 03:59:36;;;;;;;1.60;1.50;;;15.70;99.90;;;;;;5051477;28;20161;-56
2022/09/23 04:02:02;;;;;;;4.88;2.25;;;15.70;99.90;;;;;;5066250;28;20172;-57
2022/09/23 04:04:28;;;;;;;4.97;2.50;;;15.70;99.90;;;;;;5071285;28;20271;-57
2022/09/23 04:06:55;;;;;;;7.05;2.50;;;15.70;99.90;;;;;;5070802;28;20223;-57
2022/09/23 04:09:21;;;;;;;5.00;2.20;;;15.70;99.90;;;;;;5070343;28;20265;-57
2022/09/23 04:11:51;;;;;;;9.52;3.10;;;15.70;99.90;;;;;;5070416;28;20216;-57
2022/09/23 04:14:18;;;;;;;3.65;2.22;;;15.70;99.90;;;;;;5070587;28;20179;-57
2022/09/23 04:16:44;;;;;;;3.72;2.53;;;15.70;99.90;;;;;;5071118;28;20259;-57
2022/09/23 04:19:10;;;;;;;2.83;2.35;;;15.60;99.90;;;;;;5070533;28;20243;-57
2022/09/23 04:21:36;;;;;;;5.55;3.22;;;15.70;99.90;;;;;;5071188;28;20181;-57
2022/09/23 04:24:02;;;;;;;3.65;2.85;;;15.70;99.90;;;;;;5070125;28;20662;-57
2022/09/23 04:26:28;;;;;;;4.85;3.35;;;15.60;99.90;;;;;;5070432;28;20639;-57
2022/09/23 04:28:54;;;;;;;3.90;3.08;;;15.60;99.90;;;;;;5070783;28;20180;-57
2022/09/23 04:31:22;;;;;;;3.15;2.63;;;15.60;99.90;;;;;;5070384;28;20203;-58
2022/09/23 04:33:48;;;;;;;4.43;2.88;;;15.60;99.90;;;;;;5070231;28;20195;-57
2022/09/23 04:36:14;;;;;;;3.33;3.03;;;15.60;99.90;;;;;;5070797;28;20255;-57
2022/09/23 04:38:43;;;;;;;3.67;2.90;;;15.50;99.90;;;;;;5069772;28;20700;-57
2022/09/23 04:41:09;;;;;;;6.15;2.75;;;15.50;99.90;;;;;;5070252;28;20180;-57
2022/09/23 04:43:35;;;;;;;4.63;2.65;;;15.60;99.90;;;;;;5069576;28;20181;-58
2022/09/23 04:46:03;;;;;;;4.43;2.78;;;15.50;99.90;;;;;;5070606;28;20165;-57
2022/09/23 04:48:29;;;;;;;2.97;2.53;;;15.50;99.90;;;;;;5069635;28;20212;-57
2022/09/23 04:51:06;;;;;;;5.72;3.38;;;15.40;99.90;;;;;;5069814;28;20679;-55
2022/09/23 04:53:33;;;;;;;3.63;2.63;;;15.40;99.90;;;;;;5060338;28;20672;-55
2022/09/23 04:56:04;;;;;;;4.95;2.80;;;15.40;99.90;;;;;;5069673;28;20259;-55
2022/09/23 04:58:30;;;;;;;5.53;2.67;;;15.30;99.90;;;;;;5069647;28;20660;-55
2022/09/23 05:00:56;;;;;;;6.22;3.20;;;15.40;99.90;;;;;;5052257;28;20180;-55
2022/09/23 05:03:23;;;;;;;3.40;2.50;;;15.30;99.90;;;;;;5069893;28;20172;-55
2022/09/23 05:05:49;;;;;;;4.80;2.88;;;15.10;99.90;;;;;;5069631;28;20184;-56
2022/09/23 05:08:14;;;;;;;4.75;2.78;;;15.20;99.90;;;;;;5070208;28;20164;-55
2022/09/23 05:10:41;;;;;;;3.33;2.63;;;;;;;;;;5069295;28;20207;-56
2022/09/23 05:13:07;;;;;;;7.75;3.00;;;15.20;99.90;;;;;;5068647;28;20267;-55
2022/09/23 05:15:33;;;;;;;4.30;2.70;;;15.20;99.90;;;;;;5070292;28;20172;-55
2022/09/23 05:18:01;;;;;;;3.65;2.88;;;;;;;;;;5069965;28;20173;-55
2022/09/23 05:20:27;;;;;;;4.30;3.30;;;15.00;99.90;;;;;;5070136;28;20226;-55
2022/09/23 05:22:54;;;;;;;4.55;2.85;;;15.20;99.90;;;;;;5070146;28;20195;-55
2022/09/23 05:25:22;;;;;;;5.50;3.28;;;15.20;99.90;;;;;;5051990;28;20778;-55
2022/09/23 05:27:48;;;;;;;4.82;2.92;;;15.20;99.90;;;;;;5069949;28;20237;-55
2022/09/23 05:30:14;;;;;;;4.82;3.30;;;15.20;99.90;;;;;;5046681;28;20286;-56
2022/09/23 05:32:40;;;;;;;4.63;3.10;;;;;;;;;;5061112;28;20208;-55
2022/09/23 05:35:06;;;;;;;4.88;3.15;;;15.30;99.90;;;;;;5069684;28;20674;-55
2022/09/23 05:37:32;;;;;;;5.47;4.20;;;15.20;99.90;;;;;;5069553;28;20317;-55
2022/09/23 05:39:58;;;;;;;6.78;4.15;;;15.20;99.90;;;;;;5069564;28;20227;-56
2022/09/23 05:42:23;;;;;;;8.80;5.30;;;15.20;99.90;;;;;;5069364;28;20674;-56
2022/09/23 05:44:49;;;;;;;8.82;5.03;;;;;;;;;;5068871;28;20272;-55
2022/09/23 05:47:15;;;;;;;8.65;6.10;;;15.20;99.90;;;;;;5069735;28;20239;-55
2022/09/23 05:49:40;;;;;;;11.40;6.57;;;15.20;99.90;;;;;;5065782;28;20218;-55
2022/09/23 05:52:06;;;;;;;10.20;6.85;;;15.20;99.90;;;;;;5068950;28;20254;-55
2022/09/23 05:54:32;;;;;;;9.60;7.28;;;15.10;99.90;;;;;;5069574;28;20668;-55
2022/09/23 05:56:57;;;;;;;10.60;7.63;;;15.30;99.90;;;;;;5069572;28;20659;-56
2022/09/23 05:59:23;;;;;;;11.60;8.75;;;15.20;99.90;;;;;;5069411;28;20177;-55
2022/09/23 06:01:49;;;;;;;12.77;8.40;;;15.20;99.90;;;;;;5069478;28;20181;-55
2022/09/23 06:04:14;;;;;;;12.27;8.35;;;15.20;99.90;;;;;;5073164;28;20251;-56
2022/09/23 06:06:41;;;;;;;17.55;9.13;;;15.20;99.90;;;;;;5072818;28;20717;-56
2022/09/23 06:09:12;;;;;;;15.50;12.00;;;15.20;99.90;;;;;;5071427;28;20177;-57
2022/09/23 06:11:37;;;;;;;15.00;11.77;;;15.30;99.90;;;;;;5072998;28;20212;-57
2022/09/23 06:14:04;;;;;;;18.15;11.27;;;15.30;99.90;;;;;;5035243;28;20666;-58
2022/09/23 06:16:33;;;;;;;14.75;10.70;;;15.20;99.90;;;;;;5069379;28;20180;-57
2022/09/23 06:19:03;;;;;;;15.85;11.05;;;15.30;99.90;;;;;;5073043;28;20185;-57
2022/09/23 06:21:30;;;;;;;16.45;11.05;;;15.30;99.90;;;;;;5073371;28;20176;-57
2022/09/23 06:23:59;;;;;;;14.60;11.38;;;15.20;99.90;;;;;;5072633;28;20169;-57
2022/09/23 06:26:25;;;;;;;15.55;11.52;;;15.20;99.90;;;;;;5071149;28;20195;-57
2022/09/23 06:28:51;;;;;;;13.45;10.77;;;15.30;99.90;;;;;;5071726;28;20177;-57
2022/09/23 06:31:17;;;;;;;14.48;10.90;;;15.20;99.90;;;;;;5072085;28;20637;-58
2022/09/23 06:33:44;;;;;;;14.20;10.15;;;15.30;99.90;;;;;;5072339;28;20196;-58
2022/09/23 06:36:12;;;;;;;13.52;9.82;;;15.30;99.90;;;;;;5072914;28;20267;-57
2022/09/23 06:38:40;;;;;;;16.17;10.70;;;15.30;99.90;;;;;;5072953;28;20173;-57
2022/09/23 06:41:06;;;;;;;14.63;9.85;;;15.30;99.90;;;;;;5072839;28;20204;-58
2022/09/23 06:43:31;;;;;;;14.07;9.90;;;15.30;99.90;;;;;;5072334;28;20625;-57
2022/09/23 06:46:00;;;;;;;16.08;10.07;;;15.40;99.90;;;;;;5072802;28;20542;-57
2022/09/23 06:48:27;;;;;;;16.15;10.25;;;15.40;99.90;;;;;;5063695;28;20193;-58
2022/09/23 06:50:53;;;;;;;14.88;10.73;;;15.50;99.90;;;;;;5064100;28;20197;-58
2022/09/23 06:53:22;;;;;;;16.25;10.77;;;15.50;99.90;;;;;;5065623;28;20172;-57
2022/09/23 06:55:48;;;;;;;15.70;10.90;;;15.50;99.90;;;;;;5072424;28;20188;-57
2022/09/23 06:58:14;;;;;;;16.73;10.77;;;15.40;99.90;;;;;;5054400;28;20181;-57
2022/09/23 07:00:39;;;;;;;19.75;12.23;;;15.50;99.90;;;;;;5072537;28;20180;-57
2022/09/23 07:03:07;;;;;;;18.23;12.18;;;15.50;99.90;;;;;;5072619;28;20196;-57
2022/09/23 07:05:33;;;;;;;18.60;12.02;;;15.60;99.90;;;;;;5072391;28;20172;-60
2022/09/23 07:07:59;;;;;;;19.92;12.90;;;15.80;99.90;;;;;;5071336;28;20296;-58
2022/09/23 07:10:27;;;;;;;22.05;12.88;;;15.40;99.90;;;;;;5071879;28;20176;-58
2022/09/23 07:12:53;;;;;;;17.60;12.57;;;15.50;99.90;;;;;;5072309;28;20181;-58
2022/09/23 07:15:19;;;;;;;22.33;13.57;;;15.70;99.90;;;;;;5072223;28;20180;-58
2022/09/23 07:17:45;;;;;;;21.80;12.68;;;15.80;99.90;;;;;;5072192;28;20542;-58
2022/09/23 07:20:11;;;;;;;18.70;12.27;;;15.70;99.90;;;;;;5072282;28;20165;-58
2022/09/23 07:22:37;;;;;;;21.33;13.20;;;15.70;99.90;;;;;;5070999;28;20200;-57
2022/09/23 07:25:04;;;;;;;20.92;13.45;;;15.70;99.90;;;;;;5071253;28;20229;-58
2022/09/23 07:27:32;;;;;;;19.85;13.20;;;;;;;;;;5071920;28;20184;-58
2022/09/23 07:29:57;;;;;;;24.95;13.85;;;15.80;99.90;;;;;;5071583;28;20353;-57
2022/09/23 07:32:24;;;;;;;23.38;13.27;;;;;;;;;;5072440;28;20732;-57
2022/09/23 07:34:50;;;;;;;18.70;12.93;;;15.90;99.90;;;;;;5070348;28;20165;-57
2022/09/23 07:37:17;;;;;;;23.25;14.10;;;16.00;99.90;;;;;;5071727;28;20181;-59
2022/09/23 07:39:44;;;;;;;26.13;13.68;;;16.30;99.90;;;;;;5071826;28;20196;-57
2022/09/23 07:42:11;;;;;;;24.65;13.55;;;16.30;99.90;;;;;;5071534;28;20180;-58
2022/09/23 07:44:37;;;;;;;22.05;13.05;;;16.00;99.90;;;;;;5071573;28;20175;-58
2022/09/23 07:47:02;;;;;;;20.45;13.02;;;16.20;99.90;;;;;;5071587;28;20176;-58
2022/09/23 07:49:28;;;;;;;22.58;12.75;;;16.30;99.90;;;;;;5071338;28;20252;-58
2022/09/23 07:51:54;;;;;;;22.90;12.60;;;16.20;99.90;;;;;;5071142;28;20678;-57
2022/09/23 07:54:20;;;;;;;21.15;13.57;;;16.30;99.90;;;;;;5069559;28;20631;-58
2022/09/23 07:56:46;;;;;;;20.50;13.02;;;16.30;99.90;;;;;;5071002;28;20608;-57
2022/09/23 07:59:16;;;;;;;24.58;12.65;;;16.40;99.90;;;;;;5071362;28;20179;-57
2022/09/23 08:01:47;;;;;;;18.95;13.25;;;16.50;99.90;;;;;;5070602;28;20180;-57
2022/09/23 08:04:26;;;;;;;20.42;13.10;;;16.60;99.90;;;;;;5069882;28;20176;-57
2022/09/23 08:06:54;;;;;;;23.88;13.00;;;16.70;99.90;;;;;;5070559;28;20214;-57
2022/09/23 08:09:24;;;;;;;18.05;11.35;;;16.60;99.90;;;;;;5052668;28;20550;-57
2022/09/23 08:11:51;;;;;;;19.65;11.35;;;16.70;99.90;;;;;;5070608;28;20262;-57
2022/09/23 08:14:17;;;;;;;24.95;13.70;;;17.00;99.90;;;;;;5070172;28;20655;-57
2022/09/23 08:16:44;;;;;;;22.52;12.40;;;17.10;99.90;;;;;;5052531;28;20169;-57
2022/09/23 08:19:11;;;;;;;20.35;11.80;;;17.10;99.90;;;;;;5070887;28;20249;-56
2022/09/23 08:21:38;;;;;;;21.58;12.50;;;17.00;99.90;;;;;;5070852;28;20200;-56
2022/09/23 08:24:04;;;;;;;19.20;12.65;;;17.00;99.90;;;;;;5069063;28;20173;-55
2022/09/23 08:26:33;;;;;;;18.30;11.23;;;16.90;99.90;;;;;;5066533;28;20267;-56
2022/09/23 08:28:59;;;;;;;17.13;11.20;;;17.00;99.90;;;;;;5070790;28;20176;-56
2022/09/23 08:31:24;;;;;;;16.98;11.05;;;16.80;99.90;;;;;;5051781;28;20679;-56
2022/09/23 08:33:58;;;;;;;18.80;10.25;;;16.90;99.90;;;;;;5070171;28;20259;-56
2022/09/23 08:36:25;;;;;;;16.65;8.70;;;16.90;99.90;;;;;;5069985;28;20199;-55
2022/09/23 08:38:50;;;;;;;14.13;8.82;;;16.90;99.90;;;;;;5070287;28;20172;-56
2022/09/23 08:41:33;;;;;;;13.70;7.50;;;17.10;99.90;;;;;;5070513;28;20560;-56
2022/09/23 08:44:03;;;;;;;16.77;6.90;;;17.10;99.90;;;;;;5070142;28;20189;-56
2022/09/23 08:46:36;;;;;;;12.85;4.93;;;17.40;99.90;;;;;;5070251;28;20198;-57
2022/09/23 08:49:06;;;;;;;14.35;3.63;;;17.50;99.90;;;;;;5070210;28;20172;-55
2022/09/23 08:51:45;;;;;;;12.05;2.65;;;17.60;99.90;;;;;;5069416;28;20212;-55
2022/09/23 08:54:12;;;;;;;7.90;2.28;;;17.80;99.90;;;;;;5070216;28;20175;-55
2022/09/23 08:56:41;;;;;;;6.60;1.70;;;18.30;99.90;;;;;;5070039;28;20176;-55
2022/09/23 08:59:16;;;;;;;6.70;2.20;;;18.20;99.90;;;;;;5067466;28;20632;-55
2022/09/23 09:01:52;;;;;;;8.40;1.65;;;18.30;99.90;;;;;;5058979;28;20172;-56
2022/09/23 09:04:27;;;;;;;7.15;1.40;;;18.50;99.90;;;;;;5070453;28;20172;-55
2022/09/23 09:07:03;;;;;;;11.48;1.88;;;18.60;99.90;;;;;;5070193;28;20299;-56
2022/09/23 09:10:02;;;;;;;8.48;1.63;;;18.60;99.90;;;;;;5070179;28;20293;-56
2022/09/23 09:12:44;;;;;;;11.50;1.50;;;18.60;99.90;;;;;;5070209;28;20195;-56
2022/09/23 09:15:17;;;;;;;10.30;1.40;;;18.30;99.90;;;;;;5069152;28;20180;-56
2022/09/23 09:18:08;;;;;;;13.60;1.80;;;18.10;99.90;;;;;;5070072;28;20164;-56
2022/09/23 09:20:45;;;;;;;6.13;1.38;;;18.20;99.90;;;;;;5070232;28;20248;-56
2022/09/23 09:23:18;;;;;;;9.93;1.17;;;18.50;99.90;;;;;;5070134;28;20207;-56
2022/09/23 09:25:45;;;;;;;4.28;1.38;;;18.80;99.90;;;;;;5070260;28;20639;-56
2022/09/23 09:28:23;;;;;;;5.93;1.38;;;19.30;99.90;;;;;;5070056;28;20222;-56
2022/09/23 09:30:58;;;;;;;6.70;1.73;;;19.30;99.90;;;;;;5070086;28;20666;-56
2022/09/23 09:33:35;;;;;;;7.95;1.50;;;19.60;99.90;;;;;;5073244;28;20171;-56
2022/09/23 09:36:25;;;;;;;7.97;1.42;;;19.70;99.90;;;;;;5081068;28;20262;-56
2022/09/23 09:38:52;;;;;;;10.43;1.58;;;19.70;99.90;;;;;;5074832;28;20172;-56
2022/09/23 09:41:20;;;;;;;8.73;1.55;;;19.90;99.90;;;;;;5074418;28;20191;-56
2022/09/23 09:43:57;;;;;;;6.32;1.67;;;20.30;99.90;;;;;;5074058;28;20167;-56
2022/09/23 09:46:45;;;;;;;7.07;1.38;;;21.00;99.90;;;;;;5073852;28;20172;-56
2022/09/23 09:49:40;;;;;;;8.90;1.30;;;21.40;99.90;;;;;;5070621;28;20190;-56
2022/09/23 09:52:22;;;;;;;8.02;1.23;;;21.20;99.90;;;;;;5073155;28;20303;-56
2022/09/23 09:54:49;;;;;;;6.18;1.40;;;22.30;99.90;;;;;;5072684;28;20180;-59
2022/09/23 09:57:38;;;;;;;10.50;1.20;;;21.90;99.90;;;;;;5068317;28;20198;-56
2022/09/23 10:00:25;;;;;;;5.13;1.38;;;22.80;99.90;;;;;;5057334;28;20195;-57
2022/09/23 10:02:58;;;;;;;4.38;1.45;;;22.90;99.90;;;;;;5073130;28;20546;-56
2022/09/23 10:05:46;;;;;;;5.15;1.52;;;22.00;99.90;;;;;;5072755;28;20243;-56
2022/09/23 10:08:21;;;;;;;8.18;1.95;;;21.60;99.90;;;;;;5073518;28;20187;-56
2022/09/23 10:11:17;;;;;;;6.75;1.50;;;21.20;99.90;;;;;;5073374;28;20196;-56
2022/09/23 10:14:04;;;;;;;5.40;1.45;;;22.30;99.90;;;;;;5054576;28;20269;-56
2022/09/23 10:16:33;;;;;;;7.28;1.38;;;23.70;99.90;;;;;;5062736;28;20172;-57
2022/09/23 10:19:00;;;;;;;5.97;1.38;;;24.40;99.90;;;;;;5073304;28;20176;-57
2022/09/23 10:21:33;;;;;;;7.05;1.60;;;25.50;99.90;;;;;;5073261;28;20169;-57
2022/09/23 10:24:01;;;;;;;4.80;1.17;;;27.20;99.90;;;;;;5072962;28;20165;-57
2022/09/23 10:26:43;;;;;;;6.75;1.75;;;27.10;99.90;;;;;;5069306;28;20181;-57
2022/09/23 10:29:28;;;;;;;4.40;1.17;;;27.40;99.90;;;;;;5053155;28;20196;-58
2022/09/23 10:32:24;;;;;;;8.93;1.60;;;27.60;99.90;;;;;;5053477;28;20284;-57
2022/09/23 10:35:14;;;;;;;5.68;1.38;;;25.20;99.90;;;;;;5072931;28;20181;-57
2022/09/23 10:37:47;;;;;;;9.82;1.50;;;25.80;99.90;;;;;;5062720;28;20208;-57
2022/09/23 10:47:00;;;;;;;6.97;1.73;;;24.60;99.90;;;;;;5072350;28;20191;-57
2022/09/23 10:49:29;;;;;;;6.53;1.60;;;25.60;99.90;;;;;;5040303;28;20203;-57
2022/09/23 10:52:17;;;;;;;5.22;1.38;;;25.70;99.90;;;;;;5052202;28;20319;-56
2022/09/23 10:54:51;;;;;;;5.18;1.80;;;24.20;99.90;;;;;;5052004;28;20169;-55
2022/09/23 10:57:43;;;;;;;7.38;1.52;;;23.70;99.90;;;;;;5069241;28;20190;-56
2022/09/23 11:00:31;;;;;;;6.30;1.40;;;24.60;99.90;;;;;;5016601;28;20252;-56
2022/09/23 11:03:21;;;;;;;5.65;1.33;;;26.30;99.90;;;;;;5062951;28;20162;-56
2022/09/23 11:06:14;;;;;;;17.70;2.15;;;26.90;99.90;;;;;;5056826;28;20279;-56
2022/09/23 11:09:09;;;;;;;7.75;1.42;;;26.10;99.90;;;;;;5067222;28;20695;-56
2022/09/23 11:11:56;;;;;;;4.72;1.20;;;26.40;99.90;;;;;;5071619;28;20207;-56
2022/09/23 11:14:44;;;;;;;7.85;1.60;;;26.20;99.90;;;;;;5072152;28;20172;-56
2022/09/23 11:17:37;;;;;;;10.18;1.50;;;26.30;99.90;;;;;;5059423;28;20188;-56
2022/09/23 11:20:27;;;;;;;4.75;1.40;;;24.80;99.90;;;;;;5066743;28;20177;-56
2022/09/23 11:23:19;;;;;;;5.78;1.30;;;26.50;99.90;;;;;;5038582;28;20180;-56
2022/09/23 11:26:26;;;;;;;5.30;1.08;;;26.10;99.90;;;;;;5060954;28;20226;-56
2022/09/23 11:28:57;;;;;;;3.90;1.35;;;25.40;99.90;;;;;;5063685;28;20172;-57
2022/09/23 11:31:35;;;;;;;5.55;1.63;;;24.40;99.90;;;;;;5070706;28;20827;-57
2022/09/23 11:34:24;;;;;;;5.82;1.58;;;25.10;99.90;;;;;;5071545;28;20172;-57
2022/09/23 11:36:57;;;;;;;5.20;1.50;;;26.50;99.90;;;;;;5071196;28;20187;-57
2022/09/23 11:39:54;;;;;;;4.40;1.50;;;28.00;99.90;;;;;;5070596;28;20291;-57
2022/09/23 11:42:25;;;;;;;4.15;1.30;;;28.40;99.90;;;;;;5069985;28;20211;-57
2022/09/23 11:45:01;;;;;;;4.45;1.35;;;29.40;99.90;;;;;;5071692;28;20194;-57
2022/09/23 11:47:36;;;;;;;10.00;1.58;;;30.00;99.90;;;;;;5063666;28;20179;-57
2022/09/23 11:50:14;;;;;;;6.07;1.30;;;29.00;99.90;;;;;;5071444;28;20199;-58
2022/09/23 11:52:47;;;;;;;5.13;1.60;;;29.50;99.90;;;;;;5071360;28;20286;-57
2022/09/23 11:55:19;;;;;;;6.68;1.73;;;29.50;99.90;;;;;;5070315;28;20179;-57
2022/09/23 11:57:51;;;;;;;3.17;1.20;;;30.00;99.90;;;;;;5070888;28;20229;-58
2022/09/23 12:00:26;;;;;;;3.63;1.50;;;30.20;99.90;;;;;;5057952;28;20268;-57
2022/09/23 12:03:08;;;;;;;5.00;1.40;;;29.10;99.90;;;;;;5066889;28;20220;-57
2022/09/23 12:05:57;;;;;;;2.85;1.30;;;28.80;99.90;;;;;;5070705;28;20634;-57
2022/09/23 12:08:31;;;;;;;3.80;1.55;;;27.10;99.90;;;;;;5029584;28;20343;-57
2022/09/23 12:11:05;;;;;;;6.57;1.75;;;26.40;99.90;;;;;;5030447;28;20201;-57
2022/09/23 12:14:07;;;;;;;6.45;1.63;;;25.30;99.90;;;;;;5028926;28;20197;-57
2022/09/23 12:16:36;;;;;;;11.27;2.00;;;24.40;99.90;;;;;;5026653;28;20224;-58
2022/09/23 12:19:07;;;;;;;5.75;2.05;;;25.20;99.90;;;;;;5031039;28;20262;-56
2022/09/23 12:21:37;;;;;;;3.65;1.60;;;25.20;99.90;;;;;;5030993;28;20158;-56
2022/09/23 12:24:40;;;;;;;6.65;2.00;;;26.30;99.90;;;;;;5030609;28;20216;-57
2022/09/23 12:27:09;;;;;;;4.28;1.48;;;27.10;99.90;;;;;;5030536;28;20184;-57
2022/09/23 12:29:37;;;;;;;3.75;1.50;;;27.70;99.90;;;;;;5028912;28;20180;-57
2022/09/23 12:32:08;;;;;;;6.57;2.00;;;28.80;99.90;;;;;;5030970;28;20209;-57
2022/09/23 12:34:47;;;;;;;4.53;1.35;;;29.10;99.90;;;;;;5030496;28;20177;-57
2022/09/23 12:37:23;;;;;;;8.68;1.80;;;29.00;99.90;;;;;;5030974;28;20657;-58
2022/09/23 12:39:48;;;;;;;5.80;1.92;;;29.90;99.90;;;;;;5030746;28;20607;-58
2022/09/23 12:42:21;;;;;;;4.55;1.60;;;30.60;99.90;;;;;;5030690;28;20169;-58
2022/09/23 12:44:48;;;;;;;6.32;1.30;;;30.80;99.90;;;;;;5030273;28;20176;-58
2022/09/23 12:47:13;;;;;;;4.60;1.40;;;30.70;99.90;;;;;;5030719;28;20188;-57
2022/09/23 12:49:39;;;;;;;5.28;1.30;;;31.10;99.90;;;;;;5024025;28;20198;-58
2022/09/23 12:52:12;;;;;;;10.15;2.22;;;31.60;99.90;;;;;;5010561;28;20240;-57
2022/09/23 12:54:40;;;;;;;5.25;1.30;;;30.40;99.90;;;;;;5010632;28;20592;-57
2022/09/23 12:57:32;;;;;;;3.80;1.27;;;29.00;99.90;;;;;;5009346;28;20181;-57
2022/09/23 12:59:58;;;;;;;4.72;1.73;;;27.60;99.90;;;;;;5010327;28;20182;-57
2022/09/23 13:02:32;;;;;;;2.97;1.40;;;27.70;99.90;;;;;;5015540;28;20234;-57
2022/09/23 13:07:48;;;;;;;4.57;1.50;;;29.20;99.90;;;;;;5065401;28;20241;-57
2022/09/23 13:10:22;;;;;;;3.60;1.30;;;30.00;99.90;;;;;;5067505;28;20247;-57
2022/09/23 13:12:50;;;;;;;7.80;1.63;;;29.60;99.90;;;;;;5058382;28;20204;-57
2022/09/23 13:15:36;;;;;;;8.10;1.83;;;27.80;99.90;;;;;;5070127;28;20169;-57
2022/09/23 13:18:56;;;;;;;3.33;1.60;;;25.60;99.90;;;;;;5068198;28;20199;-57
2022/09/23 13:21:46;;;;;;;3.20;1.20;;;26.50;99.90;;;;;;4987297;28;20902;-57
2022/09/23 13:24:23;;;;;;;3.85;1.42;;;26.60;99.90;;;;;;5069746;28;20674;-57